Terminal Aerodrome Forecast
Issued by NWS

Home | Current Version | Previous Version | Text Only | Print | Product List | Glossary On
Versions: 1 2 3 4 5 6 7 8 9 10 11 12 13 14 15 16 17 18 19 20 21 22
000
FTUS46 KMTR 220500
TAFSTS
TAF
KSTS 220520Z 2206/2306 00000KT 1/4SM FG VV002
     FM221800 VRB03KT P6SM FEW003 SCT009
     FM230300 33004KT P6SM FEW007=

USA.gov is the U.S. government's official web portal to all federal, state and local government web resources and services.